Time;durP1;ratioP1;P1;durP2;ratioP2;P2;SDS_P1;SDS_P2;PMS_P1;PMS_P2;Temp;Humidity;BMP_temperature;BMP_pressure;BME280_temperature;BME280_humidity;BME280_pressure;Samples;Min_cycle;Max_cycle;Signal;HPM_P1;HPM_P2
2023/06/18 00:00:29;;;;;;;8.98;7.65;;;23.20;63.90;;;;;;5020986;28;20053;-47
2023/06/18 00:02:55;;;;;;;10.68;7.47;;;23.10;63.90;;;;;;5021650;28;20022;-48
2023/06/18 00:05:21;;;;;;;9.35;8.32;;;23.10;64.10;;;;;;5021596;28;20030;-49
2023/06/18 00:07:47;;;;;;;11.02;7.75;;;23.10;64.20;;;;;;5021198;28;20112;-51
2023/06/18 00:10:12;;;;;;;8.63;7.25;;;23.10;64.10;;;;;;5021541;28;20057;-49
2023/06/18 00:12:38;;;;;;;8.50;7.57;;;23.00;64.10;;;;;;5020918;28;20056;-49
2023/06/18 00:15:04;;;;;;;7.45;6.72;;;23.00;64.10;;;;;;5021426;28;20132;-47
2023/06/18 00:17:30;;;;;;;9.63;7.75;;;23.00;64.40;;;;;;5021160;28;20033;-47
2023/06/18 00:19:56;;;;;;;9.07;7.35;;;23.00;64.30;;;;;;5021193;28;20026;-47
2023/06/18 00:22:23;;;;;;;10.48;8.35;;;23.00;64.30;;;;;;5021221;28;20030;-51
2023/06/18 00:24:48;;;;;;;8.07;7.28;;;22.90;64.30;;;;;;5021321;28;20470;-50
2023/06/18 00:27:14;;;;;;;8.25;7.45;;;22.90;64.50;;;;;;5021152;28;20038;-48
2023/06/18 00:29:40;;;;;;;8.85;7.95;;;22.90;64.70;;;;;;5019787;28;20038;-48
2023/06/18 00:32:07;;;;;;;8.77;7.88;;;22.90;64.90;;;;;;5020873;28;20539;-48
2023/06/18 00:34:33;;;;;;;8.75;7.85;;;22.80;65.00;;;;;;5020607;28;20027;-50
2023/06/18 00:37:02;;;;;;;8.10;7.35;;;22.80;65.00;;;;;;5020462;28;20523;-47
2023/06/18 00:39:28;;;;;;;8.55;7.70;;;22.80;65.10;;;;;;5019293;28;20104;-50
2023/06/18 00:41:54;;;;;;;8.77;7.22;;;22.70;64.90;;;;;;5021119;28;20065;-50
2023/06/18 00:44:20;;;;;;;9.27;8.23;;;22.70;64.80;;;;;;5020683;28;20033;-51
2023/06/18 00:46:51;;;;;;;8.90;7.85;;;22.70;64.80;;;;;;5025238;28;20026;-49
2023/06/18 00:49:18;;;;;;;10.90;8.23;;;22.70;64.80;;;;;;5025848;28;20060;-50
2023/06/18 00:51:44;;;;;;;8.73;7.78;;;22.70;64.80;;;;;;5025205;28;20049;-50
2023/06/18 00:54:15;;;;;;;8.43;7.32;;;22.60;64.90;;;;;;5025407;28;20026;-48
2023/06/18 00:56:53;;;;;;;8.85;7.95;;;22.60;64.80;;;;;;5024866;28;20131;-50
2023/06/18 00:59:23;;;;;;;9.70;8.70;;;22.60;64.70;;;;;;5025110;28;20038;-51
2023/06/18 01:01:53;;;;;;;9.50;7.73;;;22.60;64.60;;;;;;5025127;28;20026;-49
2023/06/18 01:04:20;;;;;;;8.65;7.75;;;22.60;64.70;;;;;;5025161;28;20026;-49
2023/06/18 01:06:51;;;;;;;8.95;8.05;;;22.60;64.90;;;;;;5024992;28;20061;-48
2023/06/18 01:09:21;;;;;;;8.90;7.97;;;22.50;65.10;;;;;;5025531;28;20036;-50
2023/06/18 01:11:53;;;;;;;8.00;7.20;;;22.50;65.20;;;;;;5025376;28;20065;-47
2023/06/18 01:14:21;;;;;;;9.23;8.13;;;22.60;64.60;;;;;;5025000;28;20073;-47
2023/06/18 01:16:51;;;;;;;8.75;7.53;;;22.50;64.10;;;;;;5025603;28;20095;-49
2023/06/18 01:19:35;;;;;;;9.95;7.97;;;22.50;63.70;;;;;;5025533;28;20504;-50
2023/06/18 01:22:07;;;;;;;8.55;7.65;;;22.50;64.60;;;;;;5025048;28;20045;-47
2023/06/18 01:24:38;;;;;;;8.90;7.90;;;22.50;64.80;;;;;;5024865;28;20018;-50
2023/06/18 01:27:05;;;;;;;10.13;7.78;;;22.60;65.00;;;;;;5024586;28;20030;-47
2023/06/18 01:29:31;;;;;;;8.80;7.88;;;22.50;64.90;;;;;;5024790;28;20030;-48
2023/06/18 01:31:57;;;;;;;8.73;7.82;;;22.60;65.10;;;;;;5024878;28;20095;-48
2023/06/18 01:34:24;;;;;;;9.55;8.18;;;22.50;65.30;;;;;;5024390;28;20501;-47
2023/06/18 01:37:15;;;;;;;9.38;8.40;;;22.50;65.40;;;;;;5025279;28;20090;-52
2023/06/18 01:39:59;;;;;;;10.40;8.05;;;22.50;65.30;;;;;;5025147;28;20030;-49
2023/06/18 01:42:29;;;;;;;10.93;8.52;;;22.50;64.80;;;;;;5025645;28;20122;-49
2023/06/18 01:45:07;;;;;;;8.75;7.63;;;22.50;64.60;;;;;;5024681;28;20030;-48
2023/06/18 01:47:33;;;;;;;9.85;8.15;;;22.50;64.40;;;;;;5024795;28;20033;-48
2023/06/18 01:50:01;;;;;;;9.88;8.32;;;22.50;64.40;;;;;;5024557;28;20037;-50
2023/06/18 01:52:30;;;;;;;10.20;8.32;;;22.40;64.10;;;;;;5024955;28;20034;-48
2023/06/18 01:54:59;;;;;;;8.48;7.60;;;22.40;64.10;;;;;;5024735;28;20057;-49
2023/06/18 01:57:25;;;;;;;8.75;7.53;;;22.50;64.00;;;;;;5024851;28;20037;-46
2023/06/18 01:59:51;;;;;;;10.75;8.82;;;22.50;64.00;;;;;;5024290;28;20060;-51
2023/06/18 02:02:17;;;;;;;11.13;8.57;;;22.50;64.10;;;;;;5024787;28;20014;-50
2023/06/18 02:04:43;;;;;;;11.30;8.60;;;22.50;64.40;;;;;;5024453;28;20595;-48
2023/06/18 02:07:11;;;;;;;9.32;8.32;;;22.50;64.40;;;;;;5025073;28;20030;-49
2023/06/18 02:09:36;;;;;;;9.73;8.13;;;22.50;64.40;;;;;;5024937;28;20474;-49
2023/06/18 02:12:02;;;;;;;10.32;8.70;;;22.50;64.60;;;;;;5024306;28;20033;-50
2023/06/18 02:14:28;;;;;;;8.63;7.72;;;22.50;64.70;;;;;;5024582;28;20069;-50
2023/06/18 02:16:55;;;;;;;9.48;8.20;;;22.50;64.80;;;;;;5025309;28;20030;-49
2023/06/18 02:19:21;;;;;;;9.18;8.23;;;22.50;65.00;;;;;;5024640;28;20508;-49
2023/06/18 02:21:47;;;;;;;10.30;8.00;;;22.50;65.00;;;;;;5024663;28;20030;-48
2023/06/18 02:24:15;;;;;;;9.05;8.07;;;22.60;65.20;;;;;;5024308;28;20029;-49
2023/06/18 02:26:42;;;;;;;9.88;8.88;;;22.60;65.10;;;;;;5024566;28;20034;-48
2023/06/18 02:29:07;;;;;;;9.25;8.27;;;22.60;64.90;;;;;;5023436;28;20033;-47
2023/06/18 02:31:33;;;;;;;9.50;8.13;;;22.60;64.90;;;;;;5024896;28;20030;-47
2023/06/18 02:33:59;;;;;;;8.32;7.40;;;22.60;64.60;;;;;;5024077;28;20029;-51
2023/06/18 02:36:24;;;;;;;9.98;8.05;;;22.60;64.20;;;;;;5024165;28;20540;-48
2023/06/18 02:38:52;;;;;;;11.65;8.32;;;22.60;64.00;;;;;;5024323;28;20092;-49
2023/06/18 02:41:18;;;;;;;10.13;8.18;;;22.60;63.90;;;;;;5024468;28;20026;-49
2023/06/18 02:43:44;;;;;;;8.90;8.00;;;22.70;64.00;;;;;;5023560;28;20021;-50
2023/06/18 02:46:10;;;;;;;9.48;8.45;;;22.60;63.70;;;;;;5024254;28;20037;-49
2023/06/18 02:48:36;;;;;;;8.88;7.97;;;22.70;63.60;;;;;;5024368;28;20032;-51
2023/06/18 02:51:01;;;;;;;9.98;8.10;;;22.70;63.80;;;;;;5024276;28;20034;-48
2023/06/18 02:53:27;;;;;;;8.48;7.65;;;22.70;64.00;;;;;;5023323;28;20038;-49
2023/06/18 02:55:52;;;;;;;10.55;8.10;;;22.70;64.10;;;;;;5023484;28;20029;-49
2023/06/18 02:58:29;;;;;;;9.57;8.57;;;22.70;64.90;;;;;;5023558;28;20038;-47
2023/06/18 03:00:59;;;;;;;9.13;8.07;;;22.80;64.20;;;;;;5023622;28;20029;-48
2023/06/18 03:03:26;;;;;;;9.27;8.13;;;22.80;64.40;;;;;;5024068;28;20026;-49
2023/06/18 03:05:52;;;;;;;8.70;7.47;;;22.80;64.40;;;;;;5023662;28;20040;-49
2023/06/18 03:08:20;;;;;;;8.63;7.70;;;22.80;64.90;;;;;;5023036;28;20077;-50
2023/06/18 03:10:46;;;;;;;8.77;7.93;;;22.90;65.10;;;;;;5024094;28;20104;-50
2023/06/18 03:13:12;;;;;;;8.27;7.47;;;22.90;64.90;;;;;;5023147;28;20033;-48
2023/06/18 03:15:38;;;;;;;8.85;7.68;;;23.00;64.80;;;;;;5023232;28;20034;-49
2023/06/18 03:18:04;;;;;;;9.68;8.68;;;23.10;64.70;;;;;;5023813;28;20041;-49
2023/06/18 03:20:30;;;;;;;8.50;7.70;;;23.20;64.10;;;;;;5024118;28;20053;-50
2023/06/18 03:22:56;;;;;;;8.38;7.47;;;23.20;63.40;;;;;;5024139;28;20026;-51
2023/06/18 03:25:22;;;;;;;8.48;7.57;;;23.30;63.00;;;;;;5023277;28;20100;-49
2023/06/18 03:27:48;;;;;;;12.75;8.93;;;23.30;63.00;;;;;;5023579;28;20045;-50
2023/06/18 03:30:14;;;;;;;10.05;7.75;;;23.40;63.50;;;;;;5023795;28;20489;-49
2023/06/18 03:32:40;;;;;;;8.85;7.65;;;23.50;63.90;;;;;;5023772;28;20022;-47
2023/06/18 03:35:06;;;;;;;9.60;7.43;;;23.60;63.70;;;;;;5023654;28;20052;-49
2023/06/18 03:37:32;;;;;;;8.77;7.65;;;23.90;63.90;;;;;;5023941;28;20397;-50
2023/06/18 03:39:58;;;;;;;9.15;8.00;;;24.30;64.00;;;;;;5023357;28;20091;-52
2023/06/18 03:42:24;;;;;;;9.43;7.75;;;24.80;63.20;;;;;;5023165;28;20046;-51
2023/06/18 03:44:50;;;;;;;7.95;6.93;;;25.40;62.10;;;;;;5023024;28;20036;-50
2023/06/18 03:47:16;;;;;;;7.72;6.95;;;26.00;60.90;;;;;;5023074;28;20049;-51
2023/06/18 03:49:42;;;;;;;8.43;7.25;;;26.70;59.60;;;;;;5022321;28;20021;-50
2023/06/18 03:52:08;;;;;;;8.60;7.63;;;27.50;58.30;;;;;;5022797;28;20037;-50
2023/06/18 03:54:35;;;;;;;7.65;6.88;;;28.30;57.20;;;;;;5023793;28;20037;-50
2023/06/18 03:57:00;;;;;;;7.00;6.30;;;29.10;55.70;;;;;;5022381;28;20116;-49
2023/06/18 03:59:26;;;;;;;7.32;6.57;;;29.90;54.10;;;;;;5018837;28;20521;-48
2023/06/18 04:01:51;;;;;;;8.18;6.35;;;30.60;52.60;;;;;;5021829;28;20028;-49
2023/06/18 04:04:17;;;;;;;14.20;7.18;;;31.30;51.90;;;;;;5021176;28;20022;-49
2023/06/18 04:06:43;;;;;;;7.65;6.90;;;32.00;51.00;;;;;;5020784;28;20034;-48
2023/06/18 04:09:09;;;;;;;7.38;6.05;;;32.60;49.70;;;;;;5020055;28;20084;-47
2023/06/18 04:11:38;;;;;;;7.65;6.47;;;33.30;49.10;;;;;;5019838;28;20034;-51
2023/06/18 04:14:04;;;;;;;7.15;6.45;;;33.80;48.00;;;;;;5019547;28;20060;-49
2023/06/18 04:16:29;;;;;;;6.78;6.07;;;34.40;47.70;;;;;;5018847;28;20397;-52
2023/06/18 04:18:55;;;;;;;7.80;6.72;;;34.90;47.20;;;;;;5018681;28;20040;-53
2023/06/18 04:21:21;;;;;;;8.15;6.43;;;35.30;46.60;;;;;;5018894;28;20034;-50
2023/06/18 04:23:46;;;;;;;6.93;6.20;;;35.70;46.00;;;;;;5018920;28;20038;-50
2023/06/18 04:26:12;;;;;;;7.28;6.57;;;35.90;45.50;;;;;;5018100;28;20425;-52
2023/06/18 04:28:38;;;;;;;6.38;5.60;;;36.20;44.90;;;;;;5018404;28;20501;-52
2023/06/18 04:31:04;;;;;;;6.80;6.13;;;36.50;44.60;;;;;;5013675;28;20669;-48
2023/06/18 04:33:29;;;;;;;6.45;5.85;;;36.80;44.10;;;;;;5016448;28;20026;-49
2023/06/18 04:35:55;;;;;;;6.18;5.57;;;37.10;43.90;;;;;;5017231;28;20104;-49
2023/06/18 04:38:21;;;;;;;6.00;5.40;;;37.40;43.80;;;;;;5017567;28;20091;-51
2023/06/18 04:40:48;;;;;;;6.70;5.68;;;37.70;43.70;;;;;;5017942;28;20398;-52
2023/06/18 04:43:14;;;;;;;6.43;5.43;;;37.80;43.50;;;;;;5017768;28;20021;-49
2023/06/18 04:45:39;;;;;;;7.28;6.40;;;37.80;43.50;;;;;;5018419;28;20528;-51
2023/06/18 04:48:07;;;;;;;6.68;5.82;;;38.00;43.20;;;;;;5019100;28;20030;-49
2023/06/18 04:50:33;;;;;;;7.97;6.20;;;38.10;43.00;;;;;;5017900;28;20099;-51
2023/06/18 04:52:59;;;;;;;6.55;5.85;;;38.30;42.60;;;;;;5019647;28;20065;-52
2023/06/18 04:55:24;;;;;;;7.13;6.28;;;38.50;42.50;;;;;;5019132;28;20030;-50
2023/06/18 04:57:50;;;;;;;10.48;5.32;;;38.70;41.90;;;;;;5019200;28;20091;-51
2023/06/18 05:00:17;;;;;;;7.32;5.97;;;38.90;42.20;;;;;;5019196;28;20049;-49
2023/06/18 05:02:44;;;;;;;8.70;5.82;;;39.00;42.20;;;;;;5018534;28;20046;-49
2023/06/18 05:05:09;;;;;;;6.22;5.55;;;39.20;41.90;;;;;;5016922;28;20109;-51
2023/06/18 05:07:35;;;;;;;6.10;5.43;;;39.30;41.80;;;;;;5018299;28;20084;-49
2023/06/18 05:10:01;;;;;;;6.28;5.68;;;39.40;41.90;;;;;;5019667;28;20052;-50
2023/06/18 05:12:27;;;;;;;6.32;5.72;;;39.40;41.60;;;;;;5019232;28;20034;-52
2023/06/18 05:14:52;;;;;;;6.20;5.03;;;39.40;41.50;;;;;;5019385;28;20061;-50
2023/06/18 05:17:18;;;;;;;6.68;5.22;;;39.40;41.30;;;;;;5020106;28;20394;-50
2023/06/18 05:19:43;;;;;;;5.80;5.20;;;39.40;40.90;;;;;;5020613;28;20090;-52
2023/06/18 05:22:09;;;;;;;7.43;6.05;;;39.20;40.70;;;;;;5020982;28;20488;-50
2023/06/18 05:24:35;;;;;;;6.35;5.78;;;38.80;40.30;;;;;;5021534;28;20034;-51
2023/06/18 05:27:01;;;;;;;7.82;6.25;;;38.20;40.50;;;;;;5022372;28;20042;-48
2023/06/18 05:29:26;;;;;;;7.03;6.32;;;37.50;40.60;;;;;;5022170;28;20026;-49
2023/06/18 05:31:52;;;;;;;6.85;6.15;;;36.70;41.30;;;;;;5023299;28;20026;-50
2023/06/18 05:34:18;;;;;;;7.10;6.40;;;35.90;42.10;;;;;;5024491;28;20030;-51
2023/06/18 05:36:43;;;;;;;7.30;6.13;;;35.20;43.00;;;;;;5024634;28;20473;-52
2023/06/18 05:39:10;;;;;;;7.25;6.55;;;34.50;43.80;;;;;;5024827;28;20026;-48
2023/06/18 05:41:35;;;;;;;10.13;6.47;;;33.80;44.50;;;;;;5025432;28;20022;-48
2023/06/18 05:44:01;;;;;;;6.82;6.13;;;33.20;45.30;;;;;;5025630;28;20089;-52
2023/06/18 05:46:27;;;;;;;7.10;6.15;;;32.70;45.80;;;;;;5026073;28;20092;-52
2023/06/18 05:48:53;;;;;;;8.00;7.20;;;32.20;46.30;;;;;;5025487;28;20030;-48
2023/06/18 05:51:18;;;;;;;7.18;6.38;;;31.80;47.00;;;;;;5026549;28;20030;-50
2023/06/18 05:53:44;;;;;;;7.78;6.57;;;31.50;47.50;;;;;;5025906;28;20053;-48
2023/06/18 05:56:10;;;;;;;7.50;6.70;;;31.20;47.90;;;;;;5026134;28;20022;-51
2023/06/18 05:58:36;;;;;;;7.55;6.75;;;30.90;48.40;;;;;;5026645;28;20477;-50
2023/06/18 06:01:02;;;;;;;6.93;6.22;;;30.70;48.80;;;;;;5026755;28;20026;-48
2023/06/18 06:03:27;;;;;;;7.45;6.75;;;30.50;48.80;;;;;;5026508;28;20381;-50
2023/06/18 06:05:53;;;;;;;8.15;7.35;;;30.20;49.20;;;;;;5026358;28;20022;-50
2023/06/18 06:08:19;;;;;;;8.32;7.43;;;30.00;49.50;;;;;;5023881;28;20022;-50
2023/06/18 06:10:44;;;;;;;9.15;7.57;;;29.80;49.60;;;;;;5022702;28;20053;-52
2023/06/18 06:13:10;;;;;;;7.85;7.05;;;29.70;50.00;;;;;;5022564;28;20117;-52
2023/06/18 06:15:36;;;;;;;8.13;6.50;;;29.50;49.80;;;;;;5023120;28;20037;-52
2023/06/18 06:18:02;;;;;;;8.02;7.18;;;29.40;50.30;;;;;;5022079;28;20049;-51
2023/06/18 06:20:28;;;;;;;8.25;7.05;;;29.40;50.60;;;;;;5023094;28;20458;-52
2023/06/18 06:22:53;;;;;;;7.32;6.60;;;29.20;50.70;;;;;;5022644;28;20466;-49
2023/06/18 06:25:19;;;;;;;8.43;7.25;;;29.20;50.80;;;;;;5021993;28;20030;-51
2023/06/18 06:27:45;;;;;;;8.82;7.03;;;29.10;50.60;;;;;;5020292;28;20036;-52
2023/06/18 06:30:11;;;;;;;7.95;6.82;;;29.00;50.70;;;;;;5018938;28;20038;-50
2023/06/18 06:32:36;;;;;;;8.45;6.78;;;28.90;50.90;;;;;;5020647;28;20401;-52
2023/06/18 06:35:03;;;;;;;8.95;7.78;;;28.80;51.10;;;;;;5022016;28;20037;-49
2023/06/18 06:37:29;;;;;;;8.02;7.22;;;28.80;51.40;;;;;;5021029;28;20022;-49
2023/06/18 06:39:55;;;;;;;8.15;7.05;;;28.70;51.50;;;;;;5023466;28;20030;-51
2023/06/18 06:42:22;;;;;;;9.73;7.88;;;28.60;51.70;;;;;;5021342;28;20029;-53
2023/06/18 06:44:47;;;;;;;9.15;7.10;;;28.60;52.00;;;;;;5022550;28;20029;-51
2023/06/18 06:47:13;;;;;;;9.77;7.63;;;28.50;52.10;;;;;;5022354;28;20030;-53
2023/06/18 06:49:39;;;;;;;7.53;6.68;;;28.50;52.10;;;;;;5022204;28;20026;-49
2023/06/18 06:52:05;;;;;;;8.95;7.25;;;28.40;51.90;;;;;;5022620;28;20033;-52
2023/06/18 06:54:31;;;;;;;10.23;7.00;;;28.40;51.50;;;;;;5021034;28;20042;-52
2023/06/18 06:56:56;;;;;;;9.05;6.82;;;28.50;51.40;;;;;;5020077;28;20052;-52
2023/06/18 06:59:22;;;;;;;8.20;7.38;;;28.50;51.50;;;;;;5021726;28;20037;-52
2023/06/18 07:01:47;;;;;;;9.48;7.47;;;28.40;51.50;;;;;;5021751;28;20109;-52
2023/06/18 07:04:14;;;;;;;8.57;7.70;;;28.40;51.60;;;;;;5021892;28;20026;-48
2023/06/18 07:06:39;;;;;;;8.13;7.32;;;28.40;51.30;;;;;;5021682;28;20038;-50
2023/06/18 07:09:06;;;;;;;8.20;7.40;;;28.40;51.60;;;;;;5021877;28;20028;-49
2023/06/18 07:11:40;;;;;;;7.80;6.70;;;28.40;51.50;;;;;;5022872;28;20026;-50
2023/06/18 07:14:06;;;;;;;7.43;6.70;;;28.30;51.50;;;;;;5020254;28;20034;-50
2023/06/18 07:16:32;;;;;;;7.28;6.57;;;28.30;51.50;;;;;;5014352;28;20026;-52
2023/06/18 07:18:58;;;;;;;9.38;6.78;;;28.30;51.50;;;;;;5015084;28;20026;-52
2023/06/18 07:21:24;;;;;;;7.95;6.53;;;28.20;51.50;;;;;;5014470;28;20409;-52
2023/06/18 07:23:50;;;;;;;10.23;6.88;;;28.20;51.40;;;;;;5014631;28;20121;-52
2023/06/18 07:26:15;;;;;;;8.82;6.97;;;28.10;51.50;;;;;;5013098;28;20115;-54
2023/06/18 07:28:41;;;;;;;8.60;7.38;;;28.10;51.70;;;;;;5014400;28;20084;-52
2023/06/18 07:31:07;;;;;;;8.73;6.95;;;28.10;51.90;;;;;;5014798;28;20022;-53
2023/06/18 07:33:32;;;;;;;6.97;6.15;;;28.10;52.20;;;;;;5014765;28;20026;-52
2023/06/18 07:35:58;;;;;;;7.78;6.53;;;28.10;52.10;;;;;;5014268;28;20465;-55
2023/06/18 07:38:24;;;;;;;8.20;7.03;;;28.00;52.10;;;;;;5013155;28;20038;-52
2023/06/18 07:40:50;;;;;;;7.97;6.88;;;28.00;51.90;;;;;;5013319;28;20386;-51
2023/06/18 07:43:16;;;;;;;8.80;7.20;;;28.00;51.80;;;;;;5012482;28;20075;-54
2023/06/18 07:45:41;;;;;;;8.18;6.85;;;28.00;51.90;;;;;;5011999;28;20037;-52
2023/06/18 07:48:11;;;;;;;10.98;7.28;;;28.00;52.00;;;;;;5012156;28;20385;-53
2023/06/18 07:50:36;;;;;;;6.97;6.28;;;28.00;52.00;;;;;;5012313;28;20037;-53
2023/06/18 07:53:03;;;;;;;7.80;6.95;;;28.00;52.50;;;;;;5011290;28;20405;-50
2023/06/18 07:55:29;;;;;;;7.90;6.68;;;28.00;51.90;;;;;;5011647;28;20059;-52
2023/06/18 07:57:55;;;;;;;8.35;6.43;;;28.00;51.90;;;;;;5011674;28;20112;-53
2023/06/18 08:00:21;;;;;;;8.60;6.60;;;28.00;52.00;;;;;;5011158;28;20026;-53
2023/06/18 08:02:47;;;;;;;7.68;6.88;;;27.90;52.10;;;;;;5009377;28;20076;-51
2023/06/18 08:05:13;;;;;;;8.50;6.60;;;27.90;52.30;;;;;;5010651;28;20381;-53
2023/06/18 08:07:39;;;;;;;7.65;6.88;;;27.90;52.40;;;;;;5011175;28;20033;-50
2023/06/18 08:10:05;;;;;;;10.25;6.80;;;27.90;52.50;;;;;;5011516;28;20036;-52
2023/06/18 08:12:31;;;;;;;8.50;6.53;;;27.90;52.40;;;;;;5011906;28;20116;-50
2023/06/18 08:14:57;;;;;;;10.40;6.72;;;27.90;52.40;;;;;;5011467;28;20391;-48
2023/06/18 08:17:22;;;;;;;9.05;7.35;;;27.90;52.70;;;;;;5011625;28;20045;-50
2023/06/18 08:19:49;;;;;;;8.55;6.55;;;27.80;52.80;;;;;;5009985;28;20496;-51
2023/06/18 08:22:16;;;;;;;8.38;6.88;;;27.80;53.10;;;;;;5010119;28;20034;-48
2023/06/18 08:24:42;;;;;;;8.55;7.30;;;27.80;53.60;;;;;;5011174;28;20022;-51
2023/06/18 08:27:08;;;;;;;7.60;6.80;;;27.80;53.80;;;;;;5011465;28;20117;-48
2023/06/18 08:29:34;;;;;;;7.93;6.85;;;27.70;53.70;;;;;;5011416;28;20065;-51
2023/06/18 08:32:05;;;;;;;8.32;6.70;;;27.70;53.80;;;;;;5010067;28;20449;-49
2023/06/18 08:34:32;;;;;;;6.82;6.07;;;27.70;53.90;;;;;;5011580;28;20034;-48
2023/06/18 08:36:59;;;;;;;7.00;6.30;;;27.70;54.10;;;;;;5011489;28;20040;-51
2023/06/18 08:39:26;;;;;;;7.32;6.60;;;27.60;54.30;;;;;;5010901;28;20101;-51
2023/06/18 08:41:54;;;;;;;7.63;6.80;;;27.60;54.50;;;;;;5010170;28;20045;-51
2023/06/18 08:44:21;;;;;;;7.95;6.57;;;27.60;54.70;;;;;;5011013;28;20029;-49
2023/06/18 08:46:50;;;;;;;8.18;6.45;;;27.60;54.50;;;;;;5011425;28;20022;-52
2023/06/18 08:49:17;;;;;;;7.18;6.15;;;27.60;54.60;;;;;;5010929;28;20101;-51
2023/06/18 08:51:45;;;;;;;7.93;6.65;;;27.60;54.50;;;;;;5010798;28;20044;-49
2023/06/18 08:54:21;;;;;;;7.45;6.63;;;27.60;54.60;;;;;;5010153;28;20030;-51
2023/06/18 08:57:15;;;;;;;8.07;7.15;;;27.60;53.50;;;;;;5010600;28;20026;-51
2023/06/18 08:59:42;;;;;;;7.22;6.53;;;27.60;53.40;;;;;;5011386;28;20092;-49
2023/06/18 09:02:11;;;;;;;7.10;6.40;;;27.60;53.70;;;;;;5011286;28;20014;-52
2023/06/18 09:04:38;;;;;;;8.45;6.78;;;27.60;53.50;;;;;;5011381;28;20026;-48
2023/06/18 09:07:05;;;;;;;7.03;6.10;;;27.60;53.10;;;;;;5013812;28;20029;-50
2023/06/18 09:09:30;;;;;;;7.70;6.05;;;27.60;52.60;;;;;;5014720;28;20041;-50
2023/06/18 09:11:57;;;;;;;7.15;6.03;;;27.60;52.10;;;;;;5014902;28;20084;-50
2023/06/18 09:14:25;;;;;;;7.78;5.93;;;27.60;52.20;;;;;;5013633;28;20390;-50
2023/06/18 09:16:54;;;;;;;6.85;5.85;;;27.60;51.50;;;;;;5014943;28;20069;-52
2023/06/18 09:19:20;;;;;;;8.35;5.57;;;27.70;51.00;;;;;;5014605;28;20014;-52
2023/06/18 09:21:46;;;;;;;7.57;5.97;;;27.60;50.20;;;;;;5014849;28;20033;-51
2023/06/18 09:24:20;;;;;;;6.65;5.75;;;27.70;49.30;;;;;;5014657;28;20014;-52
2023/06/18 09:27:00;;;;;;;9.20;6.70;;;27.70;47.70;;;;;;5014368;28;20025;-52
2023/06/18 09:29:29;;;;;;;7.22;5.85;;;27.70;46.70;;;;;;5014456;28;20025;-52
2023/06/18 09:31:55;;;;;;;8.82;6.32;;;27.80;46.40;;;;;;5014191;28;20093;-52
2023/06/18 09:34:21;;;;;;;6.53;5.75;;;27.80;46.80;;;;;;5014693;28;20137;-51
2023/06/18 09:36:48;;;;;;;6.90;5.72;;;27.90;46.20;;;;;;5014912;28;20480;-51
2023/06/18 09:39:19;;;;;;;8.38;5.70;;;28.00;45.90;;;;;;5014835;28;20026;-50
2023/06/18 09:41:50;;;;;;;8.07;6.10;;;28.00;45.50;;;;;;5014681;28;20026;-51
2023/06/18 09:44:17;;;;;;;5.97;5.30;;;28.10;45.30;;;;;;5014794;28;20018;-50
2023/06/18 09:46:54;;;;;;;8.15;5.97;;;28.10;45.20;;;;;;5014556;28;20504;-48
2023/06/18 09:49:20;;;;;;;6.97;5.75;;;28.10;44.90;;;;;;5014742;28;20034;-50
2023/06/18 09:51:48;;;;;;;7.97;5.68;;;28.20;44.80;;;;;;5014326;28;20474;-49
2023/06/18 09:54:14;;;;;;;7.40;5.47;;;28.20;45.00;;;;;;5014403;28;20030;-48
2023/06/18 09:57:02;;;;;;;7.00;6.20;;;28.20;45.20;;;;;;5014457;28;20261;-50
2023/06/18 09:59:28;;;;;;;7.32;5.82;;;28.30;45.10;;;;;;5014447;28;20026;-52
2023/06/18 10:01:57;;;;;;;9.82;6.03;;;28.30;45.30;;;;;;5013513;28;20034;-52
2023/06/18 10:04:25;;;;;;;7.85;5.97;;;28.30;45.50;;;;;;5013297;28;20024;-51
2023/06/18 10:06:59;;;;;;;8.23;6.45;;;28.30;45.40;;;;;;5013766;28;20049;-48
2023/06/18 10:09:46;;;;;;;6.88;6.18;;;28.30;45.40;;;;;;5012434;28;20108;-53
2023/06/18 10:12:15;;;;;;;7.07;6.18;;;28.20;45.40;;;;;;5013155;28;20093;-53
2023/06/18 10:14:41;;;;;;;7.25;6.55;;;28.30;45.80;;;;;;5013467;28;20057;-50
2023/06/18 10:17:38;;;;;;;7.03;5.63;;;28.20;45.50;;;;;;5010328;28;20398;-49
2023/06/18 10:20:07;;;;;;;6.90;5.95;;;28.20;45.40;;;;;;5010834;28;20041;-49
2023/06/18 10:22:45;;;;;;;6.55;5.80;;;28.10;45.60;;;;;;5012430;28;20026;-53
2023/06/18 10:25:11;;;;;;;8.60;6.20;;;28.10;45.60;;;;;;5013627;28;20176;-48
2023/06/18 10:27:37;;;;;;;6.75;5.68;;;28.10;45.70;;;;;;5014137;28;20485;-50
2023/06/18 10:30:04;;;;;;;7.07;6.10;;;28.10;45.70;;;;;;5013777;28;20029;-49
2023/06/18 10:32:32;;;;;;;8.20;6.43;;;28.00;45.70;;;;;;5012564;28;20362;-51
2023/06/18 10:35:00;;;;;;;7.25;6.30;;;28.10;47.20;;;;;;5013292;28;20033;-50
2023/06/18 10:37:27;;;;;;;7.05;6.00;;;28.00;46.80;;;;;;5011121;28;20393;-48
2023/06/18 10:39:54;;;;;;;7.13;6.10;;;28.00;47.80;;;;;;5011571;28;20030;-50
2023/06/18 10:42:20;;;;;;;9.40;6.55;;;28.00;49.00;;;;;;5011916;28;20025;-50
2023/06/18 10:45:05;;;;;;;7.80;6.53;;;27.90;47.60;;;;;;5011715;28;20104;-48
2023/06/18 10:47:32;;;;;;;9.23;6.63;;;27.90;47.10;;;;;;5011678;28;20040;-51
2023/06/18 10:50:07;;;;;;;7.10;6.38;;;27.90;47.10;;;;;;5011640;28;20041;-50
2023/06/18 10:52:37;;;;;;;7.32;5.97;;;27.90;46.90;;;;;;5013128;28;20030;-49
2023/06/18 10:55:18;;;;;;;6.70;6.03;;;27.80;47.30;;;;;;5013136;28;20026;-50
2023/06/18 10:57:45;;;;;;;9.30;6.40;;;27.80;46.90;;;;;;5013364;28;20037;-48
2023/06/18 11:00:18;;;;;;;7.25;6.43;;;27.80;46.50;;;;;;5013125;28;20021;-51
2023/06/18 11:02:45;;;;;;;8.18;6.53;;;27.80;46.60;;;;;;5013330;28;20030;-51
2023/06/18 11:05:33;;;;;;;7.70;6.57;;;27.70;47.10;;;;;;5013393;28;20444;-51
2023/06/18 11:08:04;;;;;;;7.47;6.68;;;27.70;47.30;;;;;;5013294;28;20101;-52
2023/06/18 11:10:38;;;;;;;8.00;6.13;;;27.70;46.40;;;;;;5013350;28;20103;-51
2023/06/18 11:13:05;;;;;;;7.18;6.18;;;27.70;46.80;;;;;;5012685;28;20036;-52
2023/06/18 11:15:31;;;;;;;7.40;6.20;;;27.70;47.20;;;;;;5012930;28;20049;-51
2023/06/18 11:18:01;;;;;;;7.65;6.57;;;27.70;47.80;;;;;;5012837;28;20041;-52
2023/06/18 11:20:31;;;;;;;7.70;6.22;;;27.70;47.90;;;;;;5012754;28;20092;-49
2023/06/18 11:22:59;;;;;;;7.95;6.32;;;27.70;47.60;;;;;;5012971;28;20034;-52
2023/06/18 11:25:26;;;;;;;8.05;6.47;;;27.60;47.40;;;;;;5012901;28;20022;-48
2023/06/18 11:27:54;;;;;;;6.95;5.82;;;27.60;47.90;;;;;;5012579;28;20358;-51
2023/06/18 11:30:20;;;;;;;7.75;6.07;;;27.60;48.50;;;;;;5012216;28;20474;-52
2023/06/18 11:32:46;;;;;;;7.60;6.22;;;27.60;49.20;;;;;;5012514;28;20032;-51
2023/06/18 11:35:13;;;;;;;8.73;6.38;;;27.60;50.30;;;;;;5012467;28;20060;-48
2023/06/18 11:37:40;;;;;;;7.93;6.07;;;27.60;50.70;;;;;;5012723;28;20034;-49
2023/06/18 11:40:07;;;;;;;10.23;6.20;;;27.60;51.10;;;;;;5012580;28;20351;-51
2023/06/18 11:42:34;;;;;;;8.00;6.18;;;27.50;51.60;;;;;;5012705;28;20497;-52
2023/06/18 11:45:01;;;;;;;7.15;6.20;;;27.50;52.10;;;;;;5012499;28;20033;-48
2023/06/18 11:47:29;;;;;;;7.22;6.25;;;27.50;52.30;;;;;;5012494;28;20050;-51
2023/06/18 11:49:55;;;;;;;6.65;5.80;;;27.50;52.30;;;;;;5012613;28;20068;-50
2023/06/18 11:52:22;;;;;;;6.60;5.75;;;27.40;53.10;;;;;;5012164;28;20048;-48
2023/06/18 11:54:49;;;;;;;7.18;5.85;;;27.40;52.60;;;;;;5012105;28;20032;-53
2023/06/18 11:57:17;;;;;;;8.10;6.38;;;27.40;52.60;;;;;;5012017;28;20033;-54
2023/06/18 11:59:45;;;;;;;7.82;6.78;;;27.40;52.10;;;;;;5011865;28;20044;-50
2023/06/18 12:02:19;;;;;;;7.72;6.47;;;27.40;50.60;;;;;;5012171;28;20107;-51
2023/06/18 12:04:45;;;;;;;7.22;6.53;;;27.30;50.50;;;;;;5012292;28;20029;-49
2023/06/18 12:07:16;;;;;;;7.25;6.55;;;27.30;50.50;;;;;;5012525;28;20087;-51
2023/06/18 12:09:43;;;;;;;9.38;6.50;;;27.30;50.20;;;;;;5012355;28;20026;-50
2023/06/18 12:12:56;;;;;;;7.07;6.38;;;27.30;49.70;;;;;;5012332;28;20091;-51
2023/06/18 12:15:21;;;;;;;6.82;5.75;;;27.30;49.30;;;;;;5010635;28;20045;-49
2023/06/18 12:17:56;;;;;;;8.00;6.25;;;27.30;50.10;;;;;;5011524;28;20497;-50
2023/06/18 12:20:30;;;;;;;7.50;6.40;;;27.30;50.60;;;;;;5012033;28;20405;-52
2023/06/18 12:22:56;;;;;;;7.63;6.65;;;27.20;50.70;;;;;;5011857;28;20034;-50
2023/06/18 12:25:24;;;;;;;7.55;6.35;;;27.20;50.70;;;;;;5011638;28;20025;-51
2023/06/18 12:27:50;;;;;;;7.53;6.50;;;27.20;50.60;;;;;;5011924;28;20026;-51
2023/06/18 12:30:17;;;;;;;7.45;5.95;;;27.20;50.70;;;;;;5011560;28;20371;-48
2023/06/18 12:33:00;;;;;;;8.18;6.45;;;27.20;50.60;;;;;;5010424;28;20077;-52
2023/06/18 12:35:25;;;;;;;8.57;6.40;;;27.20;50.80;;;;;;5011847;28;20034;-51
2023/06/18 12:37:51;;;;;;;10.55;6.45;;;27.20;50.40;;;;;;5011766;28;20022;-49
2023/06/18 12:40:23;;;;;;;7.03;6.30;;;27.20;50.60;;;;;;5011082;28;20033;-51
2023/06/18 12:42:49;;;;;;;7.45;6.60;;;27.20;50.30;;;;;;5011523;28;20474;-50
2023/06/18 12:45:21;;;;;;;7.80;6.97;;;27.20;50.00;;;;;;5010148;28;20022;-53
2023/06/18 12:47:47;;;;;;;7.47;6.38;;;27.20;50.40;;;;;;5011449;28;20060;-49